createdAt,value
2023-05-06T00:00:26.508Z,13.12
2023-05-06T00:01:26.489Z,15.56
2023-05-06T00:02:27.216Z,14.41
2023-05-06T00:03:26.560Z,13.94
2023-05-06T00:04:26.499Z,15.14
2023-05-06T00:05:26.447Z,14.90
2023-05-06T00:06:26.825Z,14.16
2023-05-06T00:07:26.742Z,15.66
2023-05-06T00:08:26.435Z,14.40
2023-05-06T00:09:26.409Z,14.79
2023-05-06T00:10:26.402Z,14.50
2023-05-06T00:11:26.719Z,15.05
2023-05-06T00:12:26.393Z,14.09
2023-05-06T00:13:26.376Z,14.23
2023-05-06T00:14:26.368Z,14.68
2023-05-06T00:15:26.365Z,14.63
2023-05-06T00:16:26.725Z,15.49
2023-05-06T00:17:26.385Z,14.38
2023-05-06T00:18:26.335Z,13.27
2023-05-06T00:19:26.328Z,14.60
2023-05-06T00:20:26.634Z,14.36
2023-05-06T00:21:26.847Z,15.15
2023-05-06T00:22:26.297Z,14.82
2023-05-06T00:23:26.285Z,14.45
2023-05-06T00:24:26.288Z,14.60
2023-05-06T00:25:26.932Z,15.40
2023-05-06T00:26:26.257Z,14.38
2023-05-06T00:27:26.256Z,15.93
2023-05-06T00:28:26.242Z,14.42
2023-05-06T00:29:26.245Z,14.13
2023-05-06T00:30:27.168Z,15.24
2023-05-06T00:31:26.273Z,14.89
2023-05-06T00:32:26.213Z,13.67
2023-05-06T00:33:26.201Z,14.73
2023-05-06T00:34:26.535Z,13.86
2023-05-06T00:35:27.019Z,13.63
2023-05-06T00:36:26.164Z,12.86
2023-05-06T00:37:26.165Z,13.54
2023-05-06T00:38:26.152Z,14.02
2023-05-06T00:39:26.442Z,14.60
2023-05-06T00:40:26.131Z,14.35
2023-05-06T00:41:26.130Z,13.88
2023-05-06T00:42:26.111Z,13.51
2023-05-06T00:43:26.107Z,13.07
2023-05-06T00:44:26.401Z,13.53
2023-05-06T00:45:26.090Z,14.17
2023-05-06T00:46:26.149Z,12.87
2023-05-06T00:47:26.072Z,13.26
2023-05-06T00:48:26.353Z,13.95
2023-05-06T00:49:26.422Z,13.61
2023-05-06T00:50:26.041Z,14.01
2023-05-06T00:51:26.045Z,13.87
2023-05-06T00:52:26.020Z,13.79
2023-05-06T00:53:26.182Z,14.22
2023-05-06T00:54:26.002Z,16.00
2023-05-06T00:55:26.006Z,16.37
2023-05-06T00:56:25.991Z,14.76
2023-05-06T00:57:25.995Z,14.32
2023-05-06T00:58:26.303Z,14.53
2023-05-06T00:59:25.969Z,14.20
2023-05-06T01:00:25.952Z,14.17
2023-05-06T01:01:25.960Z,14.84
2023-05-06T01:02:33.254Z,14.11
2023-05-06T01:03:26.565Z,14.27
2023-05-06T01:04:25.920Z,13.60
2023-05-06T01:05:25.952Z,13.63
2023-05-06T01:06:25.886Z,14.47
2023-05-06T01:07:26.425Z,14.16
2023-05-06T01:08:25.870Z,14.46
2023-05-06T01:09:25.871Z,14.28
2023-05-06T01:10:25.853Z,16.29
2023-05-06T01:11:25.849Z,15.36
2023-05-06T01:12:26.173Z,14.69
2023-05-06T01:13:25.835Z,14.16
2023-05-06T01:14:25.818Z,15.34
2023-05-06T01:15:25.814Z,18.53
2023-05-06T01:16:26.592Z,17.03
2023-05-06T01:17:26.120Z,17.52
2023-05-06T01:18:25.814Z,17.66
2023-05-06T01:19:25.780Z,15.85
2023-05-06T01:20:25.768Z,17.07
2023-05-06T01:21:26.067Z,17.47
2023-05-06T01:22:25.746Z,16.59
2023-05-06T01:23:25.742Z,16.51
2023-05-06T01:24:25.728Z,15.10
2023-05-06T01:25:25.739Z,14.96
2023-05-06T01:26:26.556Z,15.28
2023-05-06T01:27:25.709Z,14.50
2023-05-06T01:28:25.690Z,13.72
2023-05-06T01:29:25.691Z,14.69
2023-05-06T01:30:26.424Z,15.85
2023-05-06T01:31:26.047Z,14.33
2023-05-06T01:32:25.690Z,13.86
2023-05-06T01:33:25.655Z,14.82
2023-05-06T01:34:25.648Z,15.02
2023-05-06T01:35:26.525Z,15.46
2023-05-06T01:36:25.633Z,15.72
2023-05-06T01:37:25.627Z,18.72
2023-05-06T01:38:25.606Z,19.39
2023-05-06T01:39:25.605Z,18.17
2023-05-06T01:40:25.894Z,19.85
2023-05-06T01:41:25.587Z,18.51
2023-05-06T01:42:25.567Z,17.66
2023-05-06T01:43:25.567Z,19.01
2023-05-06T01:44:25.925Z,17.84
2023-05-06T01:45:26.445Z,18.23
2023-05-06T01:46:25.546Z,19.16
2023-05-06T01:47:25.573Z,18.58
2023-05-06T01:48:25.531Z,18.15
2023-05-06T01:49:25.733Z,17.82
2023-05-06T01:50:25.517Z,17.46
2023-05-06T01:51:25.490Z,17.84
2023-05-06T01:52:25.485Z,17.76
2023-05-06T01:53:25.758Z,16.57
2023-05-06T01:54:25.880Z,15.48
2023-05-06T01:55:25.455Z,16.35
2023-05-06T01:56:25.457Z,16.32
2023-05-06T01:57:25.446Z,15.74
2023-05-06T01:58:25.615Z,13.50
2023-05-06T01:59:25.419Z,12.15
2023-05-06T02:00:25.435Z,12.92
2023-05-06T02:01:25.487Z,12.98
2023-05-06T02:02:25.511Z,12.62
2023-05-06T02:03:25.690Z,13.28
2023-05-06T02:04:25.385Z,12.61
2023-05-06T02:05:25.365Z,11.38
2023-05-06T02:06:25.369Z,13.01
2023-05-06T02:07:26.150Z,11.12
2023-05-06T02:08:25.345Z,11.76
2023-05-06T02:09:25.638Z,11.44
2023-05-06T02:10:25.331Z,12.08
2023-05-06T02:11:25.317Z,11.04
2023-05-06T02:12:25.651Z,10.48
2023-05-06T02:13:25.298Z,10.06
2023-05-06T02:14:25.295Z,10.23
2023-05-06T02:15:25.300Z,10.72
2023-05-06T02:16:25.330Z,10.17
2023-05-06T02:17:26.105Z,10.65
2023-05-06T02:18:25.281Z,9.55
2023-05-06T02:19:25.241Z,10.28
2023-05-06T02:20:25.234Z,9.90
2023-05-06T02:21:25.668Z,10.50
2023-05-06T02:22:25.571Z,9.81
2023-05-06T02:23:25.209Z,10.85
2023-05-06T02:24:25.207Z,10.53
2023-05-06T02:25:25.191Z,9.93
2023-05-06T02:26:26.124Z,11.29
2023-05-06T02:27:25.194Z,11.54
2023-05-06T02:28:25.185Z,12.51
2023-05-06T02:29:25.159Z,13.23
2023-05-06T02:30:25.160Z,12.61
2023-05-06T02:31:26.088Z,12.35
2023-05-06T02:32:25.527Z,11.96
2023-05-06T02:33:25.114Z,11.71
2023-05-06T02:34:25.114Z,11.93
2023-05-06T02:35:25.421Z,12.34
2023-05-06T02:36:25.472Z,13.20
2023-05-06T02:37:25.088Z,12.38
2023-05-06T02:38:25.097Z,11.85
2023-05-06T02:39:25.067Z,11.13
2023-05-06T02:40:25.328Z,11.39
2023-05-06T02:41:25.049Z,12.60
2023-05-06T02:42:25.052Z,11.92
2023-05-06T02:43:25.035Z,11.48
2023-05-06T02:44:25.031Z,11.70
2023-05-06T02:45:25.323Z,12.03
2023-05-06T02:46:25.128Z,12.54
2023-05-06T02:47:25.029Z,12.58
2023-05-06T02:48:25.019Z,12.09
2023-05-06T02:49:25.462Z,11.06
2023-05-06T02:50:25.295Z,12.16
2023-05-06T02:51:24.962Z,12.54
2023-05-06T02:52:24.971Z,10.65
2023-05-06T02:53:24.950Z,11.47
2023-05-06T02:54:25.321Z,11.50
2023-05-06T02:55:24.928Z,11.25
2023-05-06T02:56:24.968Z,11.49
2023-05-06T02:57:24.910Z,11.45
2023-05-06T02:58:24.912Z,10.55
2023-05-06T02:59:25.206Z,12.26
2023-05-06T03:00:24.893Z,11.83
2023-05-06T03:01:24.919Z,11.73
2023-05-06T03:02:24.906Z,11.55
2023-05-06T03:03:25.358Z,10.54
2023-05-06T03:04:25.308Z,11.33
2023-05-06T03:05:24.852Z,12.84
2023-05-06T03:06:24.835Z,12.03
2023-05-06T03:07:24.840Z,11.26
2023-05-06T03:08:25.166Z,11.62
2023-05-06T03:09:24.809Z,11.08
2023-05-06T03:10:24.807Z,10.99
2023-05-06T03:11:24.786Z,11.26
2023-05-06T03:12:24.793Z,11.64
2023-05-06T03:13:24.804Z,12.14
2023-05-06T03:14:24.775Z,11.51
2023-05-06T03:15:24.697Z,11.73
2023-05-06T03:16:24.753Z,10.87
2023-05-06T03:17:25.526Z,10.58
2023-05-06T03:18:24.676Z,11.54
2023-05-06T03:19:25.103Z,11.62
2023-05-06T03:20:24.667Z,11.97
2023-05-06T03:21:24.712Z,12.31
2023-05-06T03:22:24.677Z,12.39
2023-05-06T03:23:24.652Z,11.80
2023-05-06T03:24:24.624Z,12.09
2023-05-06T03:25:24.618Z,11.87
2023-05-06T03:26:24.612Z,11.66
2023-05-06T03:27:24.938Z,11.46
2023-05-06T03:28:24.586Z,11.94
2023-05-06T03:29:24.579Z,11.91
2023-05-06T03:30:24.573Z,12.10
2023-05-06T03:31:24.638Z,12.08
2023-05-06T03:32:24.987Z,11.24
2023-05-06T03:33:24.539Z,10.96
2023-05-06T03:34:24.567Z,11.43
2023-05-06T03:35:24.522Z,11.06
2023-05-06T03:36:25.424Z,10.77
2023-05-06T03:37:24.508Z,11.20
2023-05-06T03:38:24.510Z,10.97
2023-05-06T03:39:24.490Z,11.03
2023-05-06T03:40:24.486Z,11.73
2023-05-06T03:41:24.789Z,12.70
2023-05-06T03:42:24.467Z,11.41
2023-05-06T03:43:24.451Z,11.68
2023-05-06T03:44:24.448Z,12.44
2023-05-06T03:45:25.254Z,12.16
2023-05-06T03:46:25.331Z,11.71
2023-05-06T03:47:24.430Z,12.36
2023-05-06T03:48:24.417Z,12.38
2023-05-06T03:49:24.396Z,12.21
2023-05-06T03:50:24.410Z,11.94
2023-05-06T03:51:24.374Z,12.76
2023-05-06T03:52:24.373Z,12.35
2023-05-06T03:53:24.357Z,12.69
2023-05-06T03:54:24.356Z,13.13
2023-05-06T03:55:24.657Z,12.42
2023-05-06T03:56:24.338Z,13.44
2023-05-06T03:57:24.331Z,13.43
2023-05-06T03:58:24.312Z,12.19
2023-05-06T03:59:24.743Z,13.78
2023-05-06T04:00:25.050Z,13.22
2023-05-06T04:01:24.295Z,13.48
2023-05-06T04:02:24.379Z,12.99
2023-05-06T04:03:24.372Z,13.38
2023-05-06T04:04:24.531Z,13.41
2023-05-06T04:05:24.268Z,12.45
2023-05-06T04:06:24.249Z,12.10
2023-05-06T04:07:24.236Z,12.51
2023-05-06T04:08:24.734Z,12.62
2023-05-06T04:09:24.571Z,12.83
2023-05-06T04:10:24.225Z,12.49
2023-05-06T04:11:24.193Z,12.31
2023-05-06T04:12:24.206Z,13.24
2023-05-06T04:13:24.495Z,13.56
2023-05-06T04:14:24.174Z,15.09
2023-05-06T04:15:24.164Z,12.91
2023-05-06T04:16:24.174Z,14.03
2023-05-06T04:17:24.197Z,13.00
2023-05-06T04:18:24.482Z,14.30
2023-05-06T04:19:24.241Z,14.41
2023-05-06T04:20:24.133Z,14.30
2023-05-06T04:21:24.106Z,14.15
2023-05-06T04:22:24.492Z,13.35
2023-05-06T04:23:24.440Z,12.93
2023-05-06T04:24:24.082Z,12.75
2023-05-06T04:25:24.073Z,13.12
2023-05-06T04:26:24.074Z,14.22
2023-05-06T04:27:24.374Z,13.79
2023-05-06T04:28:24.053Z,13.37
2023-05-06T04:29:24.060Z,14.01
2023-05-06T04:30:24.045Z,12.93
2023-05-06T04:31:24.083Z,12.95
2023-05-06T04:32:24.813Z,12.55
2023-05-06T04:33:24.018Z,12.38
2023-05-06T04:34:24.010Z,14.06
2023-05-06T04:35:23.995Z,13.35
2023-05-06T04:36:24.751Z,13.10
2023-05-06T04:37:24.274Z,14.09
2023-05-06T04:38:23.973Z,13.96
2023-05-06T04:39:23.961Z,12.32
2023-05-06T04:40:23.951Z,13.49
2023-05-06T04:41:24.301Z,11.96
2023-05-06T04:42:23.938Z,13.13
2023-05-06T04:43:23.920Z,13.68
2023-05-06T04:44:23.923Z,13.38
2023-05-06T04:45:23.903Z,13.55
2023-05-06T04:46:24.678Z,13.42
2023-05-06T04:47:23.895Z,13.03
2023-05-06T04:48:23.890Z,13.91
2023-05-06T04:49:23.875Z,13.34
2023-05-06T04:50:24.205Z,12.90
2023-05-06T04:51:24.225Z,13.94
2023-05-06T04:52:23.849Z,14.12
2023-05-06T04:53:23.838Z,13.71
2023-05-06T04:54:23.832Z,12.01
2023-05-06T04:55:24.004Z,12.52
2023-05-06T04:56:23.810Z,13.88
2023-05-06T04:57:23.799Z,15.16
2023-05-06T04:58:23.794Z,14.53
2023-05-06T04:59:23.782Z,13.36
2023-05-06T05:00:24.677Z,12.68
2023-05-06T05:01:23.771Z,14.39
2023-05-06T05:02:23.831Z,14.75
2023-05-06T05:03:23.998Z,14.34
2023-05-06T05:04:24.196Z,14.02
2023-05-06T05:05:24.000Z,14.29
2023-05-06T05:06:23.724Z,13.15
2023-05-06T05:07:23.711Z,13.39
2023-05-06T05:08:23.703Z,15.21
2023-05-06T05:09:24.088Z,13.93
2023-05-06T05:10:23.688Z,13.96
2023-05-06T05:11:23.674Z,13.56
2023-05-06T05:12:23.665Z,13.01
2023-05-06T05:13:23.653Z,13.29
2023-05-06T05:14:23.951Z,12.12
2023-05-06T05:15:23.645Z,13.34
2023-05-06T05:16:23.658Z,13.02
2023-05-06T05:17:23.628Z,13.18
2023-05-06T05:18:23.972Z,12.80
2023-05-06T05:19:23.910Z,12.58
2023-05-06T05:20:23.603Z,11.95
2023-05-06T05:21:23.580Z,12.15
2023-05-06T05:22:23.580Z,12.12
2023-05-06T05:23:23.895Z,12.85
2023-05-06T05:24:23.574Z,12.15
2023-05-06T05:25:23.548Z,11.74
2023-05-06T05:26:23.548Z,12.08
2023-05-06T05:27:23.540Z,10.92
2023-05-06T05:28:23.553Z,11.38
2023-05-06T05:29:23.512Z,11.53
2023-05-06T05:30:23.528Z,11.47
2023-05-06T05:31:23.545Z,11.11
2023-05-06T05:32:23.778Z,10.90
2023-05-06T05:33:23.902Z,10.96
2023-05-06T05:34:23.476Z,10.12
2023-05-06T05:35:23.467Z,11.94
2023-05-06T05:36:23.488Z,10.12
2023-05-06T05:37:24.112Z,10.10
2023-05-06T05:38:23.431Z,10.46
2023-05-06T05:39:23.424Z,10.13
2023-05-06T05:40:23.427Z,10.34
2023-05-06T05:41:23.404Z,9.41
2023-05-06T05:42:23.524Z,10.41
2023-05-06T05:43:23.381Z,10.21
2023-05-06T05:44:23.399Z,10.18
2023-05-06T05:45:23.363Z,9.57
2023-05-06T05:46:23.897Z,10.07
2023-05-06T05:47:23.772Z,10.29
2023-05-06T05:48:23.342Z,9.54
2023-05-06T05:49:23.339Z,9.70
2023-05-06T05:50:23.323Z,9.77
2023-05-06T05:51:23.788Z,11.11
2023-05-06T05:52:23.303Z,10.04
2023-05-06T05:53:23.287Z,10.51
2023-05-06T05:54:23.281Z,10.10
2023-05-06T05:55:23.316Z,10.95
2023-05-06T05:56:23.281Z,10.62
2023-05-06T05:57:23.248Z,11.09
2023-05-06T05:58:23.258Z,10.11
2023-05-06T05:59:23.226Z,10.26
2023-05-06T06:00:23.596Z,11.04
2023-05-06T06:01:23.595Z,9.88
2023-05-06T06:02:23.261Z,10.47
2023-05-06T06:03:23.282Z,11.66
2023-05-06T06:04:23.191Z,10.19
2023-05-06T06:05:23.386Z,10.51
2023-05-06T06:06:23.165Z,10.92
2023-05-06T06:07:23.154Z,10.02
2023-05-06T06:08:23.144Z,10.99
2023-05-06T06:09:23.131Z,10.53
2023-05-06T06:10:23.321Z,10.01
2023-05-06T06:11:23.118Z,10.51
2023-05-06T06:12:23.097Z,10.36
2023-05-06T06:13:23.234Z,9.46
2023-05-06T06:14:23.474Z,10.41
2023-05-06T06:15:23.332Z,10.52
2023-05-06T06:16:23.118Z,10.45
2023-05-06T06:17:23.062Z,11.16
2023-05-06T06:18:23.027Z,11.46
2023-05-06T06:19:23.420Z,11.28
2023-05-06T06:20:23.003Z,11.18
2023-05-06T06:21:23.007Z,9.99
2023-05-06T06:22:22.980Z,11.03
2023-05-06T06:23:23.001Z,11.10
2023-05-06T06:24:23.286Z,10.40
2023-05-06T06:25:22.956Z,11.26
2023-05-06T06:26:22.943Z,10.42
2023-05-06T06:27:22.952Z,10.11
2023-05-06T06:28:23.455Z,9.83
2023-05-06T06:29:23.340Z,10.83
2023-05-06T06:30:22.890Z,9.78
2023-05-06T06:31:22.929Z,10.37
2023-05-06T06:32:22.962Z,9.71
2023-05-06T06:33:22.896Z,10.72
2023-05-06T06:34:22.855Z,9.96
2023-05-06T06:35:22.862Z,9.54
2023-05-06T06:36:22.837Z,11.02
2023-05-06T06:37:22.832Z,10.31
2023-05-06T06:38:22.837Z,9.94
2023-05-06T06:39:22.806Z,10.72
2023-05-06T06:40:22.804Z,10.12
2023-05-06T06:41:22.791Z,10.40
2023-05-06T06:42:22.793Z,10.38
2023-05-06T06:43:22.773Z,9.39
2023-05-06T06:44:22.984Z,10.39
2023-05-06T06:45:22.741Z,10.09
2023-05-06T06:46:22.758Z,10.58
2023-05-06T06:47:23.599Z,10.36
2023-05-06T06:48:22.707Z,9.80
2023-05-06T06:49:22.703Z,9.52
2023-05-06T06:50:22.687Z,10.83
2023-05-06T06:51:22.681Z,10.16
2023-05-06T06:52:22.984Z,9.49
2023-05-06T06:53:22.685Z,9.87
2023-05-06T06:54:22.638Z,9.58
2023-05-06T06:55:22.635Z,9.74
2023-05-06T06:56:22.916Z,10.21
2023-05-06T06:57:23.344Z,9.98
2023-05-06T06:58:22.603Z,9.75
2023-05-06T06:59:22.595Z,8.96
2023-05-06T07:00:22.569Z,9.51
2023-05-06T07:01:22.928Z,9.98
2023-05-06T07:02:22.743Z,9.39
2023-05-06T07:03:22.539Z,9.52
2023-05-06T07:04:22.563Z,8.81
2023-05-06T07:05:22.517Z,8.77
2023-05-06T07:06:22.520Z,8.61
2023-05-06T07:07:22.500Z,8.77
2023-05-06T07:08:22.480Z,8.40
2023-05-06T07:09:22.509Z,7.89
2023-05-06T07:10:22.769Z,8.19
2023-05-06T07:11:22.823Z,8.76
2023-05-06T07:12:22.430Z,8.76
2023-05-06T07:13:22.478Z,8.13
2023-05-06T07:14:22.422Z,8.29
2023-05-06T07:15:23.180Z,8.37
2023-05-06T07:16:22.415Z,7.63
2023-05-06T07:17:22.411Z,8.71
2023-05-06T07:18:22.418Z,8.60
2023-05-06T07:19:22.368Z,8.75
2023-05-06T07:20:22.693Z,9.42
2023-05-06T07:21:22.356Z,9.28
2023-05-06T07:22:22.360Z,8.52
2023-05-06T07:23:22.329Z,8.91
2023-05-06T07:24:22.661Z,8.22
2023-05-06T07:25:22.612Z,9.58
2023-05-06T07:26:22.300Z,9.34
2023-05-06T07:27:22.292Z,9.46
2023-05-06T07:28:22.312Z,9.10
2023-05-06T07:29:22.654Z,8.40
2023-05-06T07:30:23.299Z,9.29
2023-05-06T07:31:22.248Z,9.31
2023-05-06T07:32:22.257Z,8.55
2023-05-06T07:33:22.410Z,9.52
2023-05-06T07:34:22.509Z,8.88
2023-05-06T07:35:22.196Z,9.62
2023-05-06T07:36:22.188Z,8.68
2023-05-06T07:37:22.181Z,8.10
2023-05-06T07:38:22.494Z,8.45
2023-05-06T07:39:22.174Z,9.73
2023-05-06T07:40:22.141Z,9.15
2023-05-06T07:41:22.136Z,8.60
2023-05-06T07:42:22.115Z,9.23
2023-05-06T07:43:22.481Z,9.89
2023-05-06T07:44:22.098Z,10.10
2023-05-06T07:45:22.106Z,8.10
2023-05-06T07:46:22.121Z,7.87
2023-05-06T07:47:22.151Z,7.49
2023-05-06T07:48:22.183Z,8.06
2023-05-06T07:49:22.057Z,7.73
2023-05-06T07:50:22.034Z,8.65
2023-05-06T07:51:22.025Z,7.38
2023-05-06T07:52:22.329Z,7.32
2023-05-06T07:53:22.025Z,8.00
2023-05-06T07:54:21.992Z,8.12
2023-05-06T07:55:21.989Z,8.57
2023-05-06T07:56:21.963Z,8.45
2023-05-06T07:57:21.989Z,8.61
2023-05-06T07:58:21.952Z,8.44
2023-05-06T07:59:21.948Z,8.30
2023-05-06T08:00:21.929Z,9.36
2023-05-06T08:01:21.976Z,7.30
2023-05-06T08:02:22.156Z,8.10
2023-05-06T08:03:21.995Z,8.58
2023-05-06T08:04:21.959Z,8.48
2023-05-06T08:05:21.889Z,8.84
2023-05-06T08:06:22.140Z,8.52
2023-05-06T08:07:21.876Z,8.68
2023-05-06T08:08:21.848Z,8.78
2023-05-06T08:09:23.082Z,8.58
2023-05-06T08:10:21.830Z,7.83
2023-05-06T08:11:21.840Z,8.99
2023-05-06T08:12:21.799Z,7.97
2023-05-06T08:13:21.849Z,8.19
2023-05-06T08:14:21.783Z,8.19
2023-05-06T08:15:21.780Z,8.26
2023-05-06T08:16:24.583Z,8.67
2023-05-06T08:17:21.796Z,8.44
2023-05-06T08:18:23.111Z,8.30
2023-05-06T08:19:21.742Z,7.98
2023-05-06T08:20:22.241Z,7.60
2023-05-06T08:21:21.732Z,8.11
2023-05-06T08:22:21.696Z,7.78
2023-05-06T08:23:21.703Z,7.88
2023-05-06T08:24:21.700Z,14.98
2023-05-06T08:25:22.026Z,10.25
2023-05-06T08:26:21.668Z,34.47
2023-05-06T08:27:21.666Z,9.15
2023-05-06T08:28:23.088Z,8.23
2023-05-06T08:29:21.646Z,7.55
2023-05-06T08:30:22.638Z,7.32
2023-05-06T08:31:21.663Z,7.43
2023-05-06T08:32:21.618Z,8.41
2023-05-06T08:33:21.588Z,7.87
2023-05-06T08:34:21.599Z,26.59
2023-05-06T08:35:21.599Z,10.11
2023-05-06T08:36:21.548Z,8.28
2023-05-06T08:37:21.550Z,8.44
2023-05-06T08:38:21.537Z,7.57
2023-05-06T08:39:21.864Z,7.57
2023-05-06T08:40:21.557Z,7.57
2023-05-06T08:41:21.543Z,7.56
2023-05-06T08:42:21.491Z,7.43
2023-05-06T08:43:21.480Z,8.12
2023-05-06T08:44:21.787Z,7.42
2023-05-06T08:45:21.475Z,7.03
2023-05-06T08:46:21.537Z,7.03
2023-05-06T08:47:21.479Z,6.77
2023-05-06T08:48:22.428Z,7.17
2023-05-06T08:49:21.418Z,7.38
2023-05-06T08:50:21.719Z,7.21
2023-05-06T08:51:21.396Z,5.95
2023-05-06T08:52:21.424Z,6.71
2023-05-06T08:53:21.693Z,7.02
2023-05-06T08:54:21.356Z,6.75
2023-05-06T08:55:21.353Z,7.31
2023-05-06T08:56:21.333Z,6.22
2023-05-06T08:57:21.335Z,6.95
2023-05-06T08:58:21.630Z,6.10
2023-05-06T08:59:21.315Z,7.11
2023-05-06T09:00:21.304Z,6.68
2023-05-06T09:01:21.342Z,6.63
2023-05-06T09:02:21.861Z,7.85
2023-05-06T09:03:21.606Z,6.99
2023-05-06T09:04:21.252Z,5.83
2023-05-06T09:05:21.246Z,6.56
2023-05-06T09:06:21.231Z,7.45
2023-05-06T09:07:21.983Z,7.83
2023-05-06T09:08:21.215Z,7.36
2023-05-06T09:09:21.204Z,6.43
2023-05-06T09:10:21.188Z,6.48
2023-05-06T09:11:21.231Z,6.55
2023-05-06T09:12:21.500Z,6.86
2023-05-06T09:13:21.222Z,7.27
2023-05-06T09:14:21.141Z,6.58
2023-05-06T09:15:21.140Z,7.01
2023-05-06T09:16:21.811Z,7.68
2023-05-06T09:17:22.052Z,7.16
2023-05-06T09:18:21.107Z,6.94
2023-05-06T09:19:21.110Z,7.13
2023-05-06T09:20:21.087Z,5.69
2023-05-06T09:21:21.433Z,7.04
2023-05-06T09:22:21.111Z,7.02
2023-05-06T09:23:21.063Z,6.15
2023-05-06T09:24:21.047Z,6.60
2023-05-06T09:25:21.037Z,6.62
2023-05-06T09:26:21.376Z,6.45
2023-05-06T09:27:21.020Z,6.74
2023-05-06T09:28:20.997Z,6.32
2023-05-06T09:29:21.002Z,6.04
2023-05-06T09:30:21.759Z,5.86
2023-05-06T09:31:21.378Z,5.89
2023-05-06T09:32:20.972Z,5.89
2023-05-06T09:33:20.974Z,6.04
2023-05-06T09:34:20.936Z,5.55
2023-05-06T09:35:20.963Z,5.43
2023-05-06T09:36:20.914Z,5.69
2023-05-06T09:37:20.918Z,5.76
2023-05-06T09:38:20.893Z,5.83
2023-05-06T09:39:20.884Z,5.93
2023-05-06T09:40:21.213Z,5.60
2023-05-06T09:41:20.878Z,6.12
2023-05-06T09:42:20.864Z,5.41
2023-05-06T09:43:20.845Z,5.63
2023-05-06T09:44:21.168Z,5.59
2023-05-06T09:45:21.534Z,4.05
2023-05-06T09:46:20.833Z,4.83
2023-05-06T09:47:20.804Z,4.92
2023-05-06T09:48:20.788Z,4.97
2023-05-06T09:49:21.537Z,4.57
2023-05-06T09:50:20.765Z,4.42
2023-05-06T09:51:20.774Z,4.33
2023-05-06T09:52:20.819Z,3.96
2023-05-06T09:53:20.737Z,4.02
2023-05-06T09:54:21.228Z,5.23
2023-05-06T09:55:20.720Z,5.67
2023-05-06T09:56:20.702Z,5.70
2023-05-06T09:57:20.700Z,4.28
2023-05-06T09:58:21.467Z,4.07
2023-05-06T09:59:20.948Z,4.30
2023-05-06T10:00:20.661Z,4.98
2023-05-06T10:01:32.557Z,4.50
2023-05-06T10:02:20.802Z,5.29
2023-05-06T10:03:21.571Z,4.78
2023-05-06T10:04:21.102Z,5.37
2023-05-06T10:05:20.860Z,4.00
2023-05-06T10:06:20.612Z,4.33
2023-05-06T10:07:20.589Z,3.83
2023-05-06T10:08:20.892Z,4.72
2023-05-06T10:09:20.591Z,4.62
2023-05-06T10:10:20.569Z,3.76
2023-05-06T10:11:20.559Z,4.38
2023-05-06T10:12:20.974Z,3.48
2023-05-06T10:13:20.549Z,4.53
2023-05-06T10:14:20.525Z,3.65
2023-05-06T10:15:20.508Z,3.81
2023-05-06T10:16:20.587Z,4.74
2023-05-06T10:17:21.148Z,4.96
2023-05-06T10:18:20.484Z,4.68
2023-05-06T10:19:20.996Z,4.75
2023-05-06T10:20:20.460Z,5.46
2023-05-06T10:21:20.447Z,4.37
2023-05-06T10:22:21.288Z,4.75
2023-05-06T10:23:20.422Z,5.03
2023-05-06T10:24:20.420Z,4.29
2023-05-06T10:25:20.407Z,4.63
2023-05-06T10:26:20.732Z,3.75
2023-05-06T10:27:20.690Z,3.97
2023-05-06T10:28:25.549Z,3.80
2023-05-06T10:29:20.361Z,3.26
2023-05-06T10:30:20.351Z,4.17
2023-05-06T10:31:21.193Z,3.72
2023-05-06T10:32:20.335Z,3.63
2023-05-06T10:33:20.310Z,4.67
2023-05-06T10:34:20.307Z,4.78
2023-05-06T10:35:20.285Z,4.58
2023-05-06T10:36:20.681Z,3.95
2023-05-06T10:37:20.267Z,4.08
2023-05-06T10:38:20.260Z,3.98
2023-05-06T10:39:20.248Z,4.19
2023-05-06T10:40:20.933Z,3.97
2023-05-06T10:41:20.457Z,3.77
2023-05-06T10:42:20.228Z,3.45
2023-05-06T10:43:20.196Z,3.55
2023-05-06T10:44:20.213Z,3.12
2023-05-06T10:45:21.155Z,2.52
2023-05-06T10:46:20.173Z,2.74
2023-05-06T10:47:20.155Z,2.95
2023-05-06T10:48:20.155Z,3.08
2023-05-06T10:49:20.148Z,3.34
2023-05-06T10:50:20.593Z,3.19
2023-05-06T10:51:20.121Z,4.13
2023-05-06T10:52:20.111Z,2.83
2023-05-06T10:53:20.093Z,3.18
2023-05-06T10:54:20.457Z,3.72
2023-05-06T10:55:20.353Z,2.96
2023-05-06T10:56:20.066Z,3.17
2023-05-06T10:57:20.052Z,2.60
2023-05-06T10:58:20.055Z,2.93
2023-05-06T10:59:20.355Z,3.28
2023-05-06T11:00:20.040Z,2.65
2023-05-06T11:01:20.059Z,2.84
2023-05-06T11:02:20.297Z,2.75
2023-05-06T11:03:20.080Z,3.74
2023-05-06T11:04:20.211Z,3.11
2023-05-06T11:05:19.973Z,2.50
2023-05-06T11:06:19.970Z,3.37
2023-05-06T11:07:19.970Z,2.87
2023-05-06T11:08:20.353Z,3.05
2023-05-06T11:09:20.500Z,4.08
2023-05-06T11:10:19.927Z,2.67
2023-05-06T11:11:19.909Z,2.98
2023-05-06T11:12:19.911Z,3.42
2023-05-06T11:13:20.374Z,3.05
2023-05-06T11:14:19.902Z,2.59
2023-05-06T11:15:19.888Z,2.60
2023-05-06T11:16:19.869Z,2.80
2023-05-06T11:17:19.979Z,2.40
2023-05-06T11:18:20.309Z,2.97
2023-05-06T11:19:19.840Z,2.84
2023-05-06T11:20:19.871Z,4.19
2023-05-06T11:21:19.803Z,4.07
2023-05-06T11:22:20.121Z,3.05
2023-05-06T11:23:20.123Z,3.39
2023-05-06T11:24:19.781Z,2.87
2023-05-06T11:25:19.776Z,2.47
2023-05-06T11:26:19.783Z,2.61
2023-05-06T11:27:20.053Z,2.75
2023-05-06T11:28:19.735Z,2.43
2023-05-06T11:29:19.721Z,2.98
2023-05-06T11:30:19.743Z,2.95
2023-05-06T11:31:19.713Z,2.39
2023-05-06T11:32:20.524Z,2.47
2023-05-06T11:33:19.673Z,2.74
2023-05-06T11:34:19.679Z,2.78
2023-05-06T11:35:19.659Z,2.61
2023-05-06T11:36:19.724Z,2.23
2023-05-06T11:37:19.969Z,2.38
2023-05-06T11:38:19.633Z,2.31
2023-05-06T11:39:19.623Z,2.23
2023-05-06T11:40:19.610Z,2.27
2023-05-06T11:41:20.311Z,2.11
2023-05-06T11:42:19.585Z,2.50
2023-05-06T11:43:19.582Z,1.68
2023-05-06T11:44:19.571Z,1.97
2023-05-06T11:45:19.557Z,2.57
2023-05-06T11:46:19.851Z,2.40
2023-05-06T11:47:19.530Z,2.57
2023-05-06T11:48:19.551Z,2.65
2023-05-06T11:49:19.512Z,2.80
2023-05-06T11:50:19.819Z,2.69
2023-05-06T11:51:19.973Z,2.55
2023-05-06T11:52:19.482Z,2.43
2023-05-06T11:53:19.466Z,1.98
2023-05-06T11:54:19.463Z,2.75
2023-05-06T11:55:19.814Z,2.70
2023-05-06T11:56:19.442Z,2.07
2023-05-06T11:57:19.427Z,2.79
2023-05-06T11:58:19.420Z,2.48
2023-05-06T11:59:19.406Z,2.36
2023-05-06T12:00:20.117Z,2.69
2023-05-06T12:01:19.403Z,2.38
2023-05-06T12:02:19.480Z,2.21
2023-05-06T12:03:19.512Z,2.55
2023-05-06T12:04:19.944Z,2.90
2023-05-06T12:05:19.732Z,2.95
2023-05-06T12:06:19.352Z,2.14
2023-05-06T12:07:19.319Z,2.59
2023-05-06T12:08:26.686Z,3.00
2023-05-06T12:09:20.032Z,2.30
2023-05-06T12:10:19.294Z,2.25
2023-05-06T12:11:19.269Z,2.76
2023-05-06T12:12:19.283Z,2.09
2023-05-06T12:13:19.297Z,2.73
2023-05-06T12:14:19.498Z,2.57
2023-05-06T12:15:19.223Z,2.91
2023-05-06T12:16:19.289Z,2.54
2023-05-06T12:17:19.210Z,2.09
2023-05-06T12:18:19.983Z,2.17
2023-05-06T12:19:19.667Z,2.74
2023-05-06T12:20:19.177Z,1.87
2023-05-06T12:21:19.153Z,1.96
2023-05-06T12:22:19.304Z,2.43
2023-05-06T12:23:19.153Z,2.16
2023-05-06T12:24:19.152Z,2.42
2023-05-06T12:25:19.112Z,2.44
2023-05-06T12:26:19.109Z,2.43
2023-05-06T12:27:19.088Z,1.88
2023-05-06T12:28:19.105Z,1.83
2023-05-06T12:29:19.076Z,2.08
2023-05-06T12:30:19.072Z,2.28
2023-05-06T12:31:19.075Z,1.93
2023-05-06T12:32:19.072Z,2.23
2023-05-06T12:33:19.331Z,2.16
2023-05-06T12:34:19.026Z,1.71
2023-05-06T12:35:19.007Z,2.85
2023-05-06T12:36:19.096Z,2.24
2023-05-06T12:37:19.001Z,2.50
2023-05-06T12:38:18.984Z,1.94
2023-05-06T12:39:18.962Z,1.87
2023-05-06T12:40:18.962Z,2.03
2023-05-06T12:41:18.943Z,2.00
2023-05-06T12:42:18.950Z,2.24
2023-05-06T12:43:18.922Z,2.48
2023-05-06T12:44:18.916Z,2.56
2023-05-06T12:45:18.904Z,2.51
2023-05-06T12:46:18.955Z,2.17
2023-05-06T12:47:19.140Z,2.57
2023-05-06T12:48:18.874Z,2.21
2023-05-06T12:49:18.859Z,2.29
2023-05-06T12:50:18.894Z,2.43
2023-05-06T12:51:18.871Z,2.19
2023-05-06T12:52:18.834Z,2.43
2023-05-06T12:53:18.820Z,2.09
2023-05-06T12:54:18.816Z,2.06
2023-05-06T12:55:18.796Z,2.44
2023-05-06T12:56:18.968Z,2.58
2023-05-06T12:57:18.781Z,2.04
2023-05-06T12:58:18.772Z,2.29
2023-05-06T12:59:18.761Z,2.42
2023-05-06T13:00:19.300Z,2.54
2023-05-06T13:01:19.080Z,2.63
2023-05-06T13:02:18.903Z,2.49
2023-05-06T13:03:18.851Z,2.64
2023-05-06T13:04:18.714Z,2.26
2023-05-06T13:05:19.017Z,2.79